Bemidji, Minnesota
Current Conditions -  °F | °C
As of 1:32 AM on Sunday 23 Nov 2014 (Local Time) from KBJI Reporting Station
Haze Haze  
Wind Chill: 24°   Ceiling: 300
Heat Index: 32°   Visibility: 1.5mi
Dew Point: 32°   Wind: 9mph
Humidity: 99%   Direction: 150°SSE
Pressure: 29.38"   Gusts: NA
Location:  47.47°N, 94.88°W
Report Text: KBJI 230732Z AUTO 15008KT 1 1/2SM BR OVC003 00/00 A2938 RMK AO2 T00001002
Loading
Personal Weather Stations






























Interactive Weather Map New forecast layout! Learn more

10-Day Weather Forecast

Advertisements
Track Severe Weather on mobile